sensor_id;sensor_type;location;lat;lon;timestamp;P1;durP1;ratioP1;P2;durP2;ratioP2
4122;SDS011;2075;51.062;6.920;2024-02-16T00:00:41;3.97;;;2.73;;
4122;SDS011;2075;51.062;6.920;2024-02-16T00:03:28;4.67;;;2.43;;
4122;SDS011;2075;51.062;6.920;2024-02-16T00:06:13;3.27;;;2.57;;
4122;SDS011;2075;51.062;6.920;2024-02-16T00:09:00;2.80;;;2.60;;
4122;SDS011;2075;51.062;6.920;2024-02-16T00:11:46;3.47;;;2.40;;
4122;SDS011;2075;51.062;6.920;2024-02-16T00:14:32;17.63;;;2.80;;
4122;SDS011;2075;51.062;6.920;2024-02-16T00:17:18;6.83;;;2.50;;
4122;SDS011;2075;51.062;6.920;2024-02-16T00:20:03;7.30;;;3.67;;
4122;SDS011;2075;51.062;6.920;2024-02-16T00:22:51;7.13;;;2.60;;
4122;SDS011;2075;51.062;6.920;2024-02-16T00:25:38;3.73;;;2.53;;
4122;SDS011;2075;51.062;6.920;2024-02-16T00:28:24;4.93;;;2.40;;
4122;SDS011;2075;51.062;6.920;2024-02-16T00:31:09;3.43;;;2.30;;
4122;SDS011;2075;51.062;6.920;2024-02-16T00:33:55;6.27;;;2.83;;
4122;SDS011;2075;51.062;6.920;2024-02-16T00:36:40;2.90;;;2.60;;
4122;SDS011;2075;51.062;6.920;2024-02-16T00:39:26;4.83;;;2.60;;
4122;SDS011;2075;51.062;6.920;2024-02-16T00:42:13;3.27;;;2.70;;
4122;SDS011;2075;51.062;6.920;2024-02-16T00:44:58;3.27;;;2.30;;
4122;SDS011;2075;51.062;6.920;2024-02-16T00:47:44;7.93;;;2.83;;
4122;SDS011;2075;51.062;6.920;2024-02-16T00:50:30;2.50;;;2.30;;
4122;SDS011;2075;51.062;6.920;2024-02-16T00:53:15;3.27;;;2.20;;
4122;SDS011;2075;51.062;6.920;2024-02-16T00:56:01;4.00;;;2.50;;
4122;SDS011;2075;51.062;6.920;2024-02-16T00:58:48;2.40;;;2.20;;
4122;SDS011;2075;51.062;6.920;2024-02-16T01:01:34;2.53;;;2.33;;
4122;SDS011;2075;51.062;6.920;2024-02-16T01:04:20;4.83;;;2.60;;
4122;SDS011;2075;51.062;6.920;2024-02-16T01:07:05;4.13;;;2.30;;
4122;SDS011;2075;51.062;6.920;2024-02-16T01:09:51;3.10;;;2.47;;
4122;SDS011;2075;51.062;6.920;2024-02-16T01:12:36;2.47;;;2.00;;
4122;SDS011;2075;51.062;6.920;2024-02-16T01:15:23;3.43;;;2.40;;
4122;SDS011;2075;51.062;6.920;2024-02-16T01:18:08;3.20;;;2.10;;
4122;SDS011;2075;51.062;6.920;2024-02-16T01:20:53;2.40;;;2.30;;
4122;SDS011;2075;51.062;6.920;2024-02-16T01:23:39;7.17;;;2.70;;
4122;SDS011;2075;51.062;6.920;2024-02-16T01:26:24;3.00;;;2.40;;
4122;SDS011;2075;51.062;6.920;2024-02-16T01:29:10;2.17;;;2.00;;
4122;SDS011;2075;51.062;6.920;2024-02-16T01:31:57;3.20;;;2.50;;
4122;SDS011;2075;51.062;6.920;2024-02-16T01:34:42;3.17;;;2.30;;
4122;SDS011;2075;51.062;6.920;2024-02-16T01:37:30;7.07;;;3.00;;
4122;SDS011;2075;51.062;6.920;2024-02-16T01:40:16;4.37;;;2.67;;
4122;SDS011;2075;51.062;6.920;2024-02-16T01:43:01;5.73;;;2.40;;
4122;SDS011;2075;51.062;6.920;2024-02-16T01:45:46;6.90;;;2.93;;
4122;SDS011;2075;51.062;6.920;2024-02-16T01:48:34;2.53;;;2.33;;
4122;SDS011;2075;51.062;6.920;2024-02-16T01:51:19;4.77;;;2.60;;
4122;SDS011;2075;51.062;6.920;2024-02-16T01:54:07;3.50;;;2.67;;
4122;SDS011;2075;51.062;6.920;2024-02-16T01:56:53;4.03;;;2.60;;
4122;SDS011;2075;51.062;6.920;2024-02-16T01:59:40;2.30;;;2.10;;
4122;SDS011;2075;51.062;6.920;2024-02-16T02:02:26;3.17;;;2.30;;
4122;SDS011;2075;51.062;6.920;2024-02-16T02:05:13;3.87;;;2.50;;
4122;SDS011;2075;51.062;6.920;2024-02-16T02:08:01;2.20;;;2.10;;
4122;SDS011;2075;51.062;6.920;2024-02-16T02:10:54;2.87;;;2.33;;
4122;SDS011;2075;51.062;6.920;2024-02-16T02:13:40;3.53;;;2.23;;
4122;SDS011;2075;51.062;6.920;2024-02-16T02:16:25;5.97;;;2.53;;
4122;SDS011;2075;51.062;6.920;2024-02-16T02:19:11;2.60;;;2.23;;
4122;SDS011;2075;51.062;6.920;2024-02-16T02:21:57;2.47;;;2.27;;
4122;SDS011;2075;51.062;6.920;2024-02-16T02:24:46;2.30;;;2.10;;
4122;SDS011;2075;51.062;6.920;2024-02-16T02:27:32;2.23;;;2.13;;
4122;SDS011;2075;51.062;6.920;2024-02-16T02:30:18;2.27;;;1.97;;
4122;SDS011;2075;51.062;6.920;2024-02-16T02:33:04;2.30;;;2.07;;
4122;SDS011;2075;51.062;6.920;2024-02-16T02:35:50;4.87;;;2.10;;
4122;SDS011;2075;51.062;6.920;2024-02-16T02:38:35;4.87;;;2.50;;
4122;SDS011;2075;51.062;6.920;2024-02-16T02:41:22;4.00;;;2.60;;
4122;SDS011;2075;51.062;6.920;2024-02-16T02:44:07;4.00;;;2.20;;
4122;SDS011;2075;51.062;6.920;2024-02-16T02:46:53;2.77;;;2.10;;
4122;SDS011;2075;51.062;6.920;2024-02-16T02:49:38;2.20;;;2.10;;
4122;SDS011;2075;51.062;6.920;2024-02-16T02:52:24;2.33;;;2.03;;
4122;SDS011;2075;51.062;6.920;2024-02-16T02:55:09;3.10;;;2.60;;
4122;SDS011;2075;51.062;6.920;2024-02-16T02:57:56;4.53;;;2.53;;
4122;SDS011;2075;51.062;6.920;2024-02-16T03:00:41;1.90;;;1.80;;
4122;SDS011;2075;51.062;6.920;2024-02-16T03:03:28;2.10;;;2.00;;
4122;SDS011;2075;51.062;6.920;2024-02-16T03:06:17;3.83;;;2.30;;
4122;SDS011;2075;51.062;6.920;2024-02-16T03:09:02;2.30;;;2.20;;
4122;SDS011;2075;51.062;6.920;2024-02-16T03:11:49;4.30;;;2.50;;
4122;SDS011;2075;51.062;6.920;2024-02-16T03:14:35;2.77;;;2.53;;
4122;SDS011;2075;51.062;6.920;2024-02-16T03:17:21;3.57;;;2.40;;
4122;SDS011;2075;51.062;6.920;2024-02-16T03:20:07;3.10;;;2.50;;
4122;SDS011;2075;51.062;6.920;2024-02-16T03:22:55;2.90;;;2.63;;
4122;SDS011;2075;51.062;6.920;2024-02-16T03:25:40;6.40;;;2.47;;
4122;SDS011;2075;51.062;6.920;2024-02-16T03:28:26;2.63;;;2.43;;
4122;SDS011;2075;51.062;6.920;2024-02-16T03:31:16;3.07;;;2.87;;
4122;SDS011;2075;51.062;6.920;2024-02-16T03:34:02;3.50;;;2.63;;
4122;SDS011;2075;51.062;6.920;2024-02-16T03:36:47;4.17;;;2.60;;
4122;SDS011;2075;51.062;6.920;2024-02-16T03:39:33;11.30;;;2.60;;
4122;SDS011;2075;51.062;6.920;2024-02-16T03:42:18;3.37;;;2.60;;
4122;SDS011;2075;51.062;6.920;2024-02-16T03:45:05;7.37;;;3.90;;
4122;SDS011;2075;51.062;6.920;2024-02-16T03:47:53;13.80;;;7.53;;
4122;SDS011;2075;51.062;6.920;2024-02-16T03:50:38;11.93;;;7.60;;
4122;SDS011;2075;51.062;6.920;2024-02-16T03:53:24;8.40;;;4.63;;
4122;SDS011;2075;51.062;6.920;2024-02-16T03:56:10;4.17;;;3.53;;
4122;SDS011;2075;51.062;6.920;2024-02-16T03:58:56;4.63;;;3.13;;
4122;SDS011;2075;51.062;6.920;2024-02-16T04:01:42;8.40;;;2.90;;
4122;SDS011;2075;51.062;6.920;2024-02-16T04:04:29;2.87;;;2.63;;
4122;SDS011;2075;51.062;6.920;2024-02-16T04:07:15;9.30;;;2.70;;
4122;SDS011;2075;51.062;6.920;2024-02-16T04:10:02;3.97;;;2.40;;
4122;SDS011;2075;51.062;6.920;2024-02-16T04:12:47;5.40;;;2.87;;
4122;SDS011;2075;51.062;6.920;2024-02-16T04:15:32;4.60;;;3.20;;
4122;SDS011;2075;51.062;6.920;2024-02-16T04:18:18;2.60;;;2.40;;
4122;SDS011;2075;51.062;6.920;2024-02-16T04:21:05;3.13;;;2.10;;
4122;SDS011;2075;51.062;6.920;2024-02-16T04:23:51;4.20;;;2.50;;
4122;SDS011;2075;51.062;6.920;2024-02-16T04:26:36;4.27;;;2.60;;
4122;SDS011;2075;51.062;6.920;2024-02-16T04:29:22;3.30;;;2.70;;
4122;SDS011;2075;51.062;6.920;2024-02-16T04:32:08;3.33;;;3.00;;
4122;SDS011;2075;51.062;6.920;2024-02-16T04:34:53;2.87;;;2.67;;
4122;SDS011;2075;51.062;6.920;2024-02-16T04:37:41;3.97;;;2.80;;
4122;SDS011;2075;51.062;6.920;2024-02-16T04:40:26;6.50;;;2.60;;
4122;SDS011;2075;51.062;6.920;2024-02-16T04:43:12;4.53;;;2.63;;
4122;SDS011;2075;51.062;6.920;2024-02-16T04:45:57;5.17;;;2.93;;
4122;SDS011;2075;51.062;6.920;2024-02-16T04:48:43;3.07;;;2.73;;
4122;SDS011;2075;51.062;6.920;2024-02-16T04:51:28;2.60;;;2.40;;
4122;SDS011;2075;51.062;6.920;2024-02-16T04:54:15;3.23;;;2.90;;
4122;SDS011;2075;51.062;6.920;2024-02-16T04:57:03;3.93;;;3.10;;
4122;SDS011;2075;51.062;6.920;2024-02-16T04:59:49;7.10;;;2.57;;
4122;SDS011;2075;51.062;6.920;2024-02-16T05:02:35;2.73;;;2.50;;
4122;SDS011;2075;51.062;6.920;2024-02-16T05:05:20;6.17;;;3.10;;
4122;SDS011;2075;51.062;6.920;2024-02-16T05:08:06;3.80;;;2.60;;
4122;SDS011;2075;51.062;6.920;2024-02-16T05:10:53;6.17;;;3.13;;
4122;SDS011;2075;51.062;6.920;2024-02-16T05:13:38;3.17;;;2.83;;
4122;SDS011;2075;51.062;6.920;2024-02-16T05:16:26;2.83;;;2.60;;
4122;SDS011;2075;51.062;6.920;2024-02-16T05:19:12;3.60;;;3.30;;
4122;SDS011;2075;51.062;6.920;2024-02-16T05:21:58;5.23;;;2.90;;
4122;SDS011;2075;51.062;6.920;2024-02-16T05:24:43;3.63;;;3.30;;
4122;SDS011;2075;51.062;6.920;2024-02-16T05:27:31;3.50;;;3.20;;
4122;SDS011;2075;51.062;6.920;2024-02-16T05:30:18;4.03;;;2.63;;
4122;SDS011;2075;51.062;6.920;2024-02-16T05:33:04;3.53;;;2.80;;
4122;SDS011;2075;51.062;6.920;2024-02-16T05:35:49;6.33;;;2.83;;
4122;SDS011;2075;51.062;6.920;2024-02-16T05:38:39;6.37;;;2.77;;
4122;SDS011;2075;51.062;6.920;2024-02-16T05:41:27;2.40;;;2.30;;
4122;SDS011;2075;51.062;6.920;2024-02-16T05:44:14;3.40;;;2.40;;
4122;SDS011;2075;51.062;6.920;2024-02-16T05:46:59;6.57;;;3.27;;
4122;SDS011;2075;51.062;6.920;2024-02-16T05:49:45;4.57;;;2.70;;
4122;SDS011;2075;51.062;6.920;2024-02-16T05:52:30;3.17;;;2.97;;
4122;SDS011;2075;51.062;6.920;2024-02-16T05:55:17;5.17;;;3.10;;
4122;SDS011;2075;51.062;6.920;2024-02-16T05:58:03;3.23;;;2.93;;
4122;SDS011;2075;51.062;6.920;2024-02-16T06:00:50;5.70;;;3.30;;
4122;SDS011;2075;51.062;6.920;2024-02-16T06:03:35;4.70;;;2.70;;
4122;SDS011;2075;51.062;6.920;2024-02-16T06:06:21;3.20;;;2.87;;
4122;SDS011;2075;51.062;6.920;2024-02-16T06:09:06;5.33;;;2.90;;
4122;SDS011;2075;51.062;6.920;2024-02-16T06:11:52;3.13;;;2.83;;
4122;SDS011;2075;51.062;6.920;2024-02-16T06:14:37;4.63;;;2.63;;
4122;SDS011;2075;51.062;6.920;2024-02-16T06:17:25;4.87;;;2.77;;
4122;SDS011;2075;51.062;6.920;2024-02-16T06:20:12;3.30;;;2.80;;
4122;SDS011;2075;51.062;6.920;2024-02-16T06:22:57;3.27;;;2.90;;
4122;SDS011;2075;51.062;6.920;2024-02-16T06:25:44;4.50;;;3.20;;
4122;SDS011;2075;51.062;6.920;2024-02-16T06:28:29;5.80;;;2.90;;
4122;SDS011;2075;51.062;6.920;2024-02-16T06:31:16;3.47;;;2.87;;
4122;SDS011;2075;51.062;6.920;2024-02-16T06:34:03;3.73;;;2.83;;
4122;SDS011;2075;51.062;6.920;2024-02-16T06:36:49;3.07;;;2.73;;
4122;SDS011;2075;51.062;6.920;2024-02-16T06:39:34;4.23;;;2.90;;
4122;SDS011;2075;51.062;6.920;2024-02-16T06:42:20;8.67;;;3.50;;
4122;SDS011;2075;51.062;6.920;2024-02-16T06:45:06;5.20;;;2.83;;
4122;SDS011;2075;51.062;6.920;2024-02-16T06:47:52;5.43;;;3.30;;
4122;SDS011;2075;51.062;6.920;2024-02-16T06:50:39;2.90;;;2.63;;
4122;SDS011;2075;51.062;6.920;2024-02-16T06:53:24;7.00;;;3.43;;
4122;SDS011;2075;51.062;6.920;2024-02-16T06:56:10;9.73;;;3.43;;
4122;SDS011;2075;51.062;6.920;2024-02-16T06:58:55;4.17;;;3.00;;
4122;SDS011;2075;51.062;6.920;2024-02-16T07:01:41;3.33;;;3.03;;
4122;SDS011;2075;51.062;6.920;2024-02-16T07:04:27;3.83;;;3.53;;
4122;SDS011;2075;51.062;6.920;2024-02-16T07:07:17;3.70;;;2.90;;
4122;SDS011;2075;51.062;6.920;2024-02-16T07:10:04;6.97;;;2.90;;
4122;SDS011;2075;51.062;6.920;2024-02-16T07:12:50;6.00;;;3.00;;
4122;SDS011;2075;51.062;6.920;2024-02-16T07:15:35;7.80;;;3.07;;
4122;SDS011;2075;51.062;6.920;2024-02-16T07:18:21;5.03;;;2.97;;
4122;SDS011;2075;51.062;6.920;2024-02-16T07:21:06;4.83;;;3.03;;
4122;SDS011;2075;51.062;6.920;2024-02-16T07:23:54;4.53;;;3.27;;
4122;SDS011;2075;51.062;6.920;2024-02-16T07:26:40;5.80;;;3.60;;
4122;SDS011;2075;51.062;6.920;2024-02-16T07:29:26;10.80;;;6.23;;
4122;SDS011;2075;51.062;6.920;2024-02-16T07:32:12;4.03;;;3.03;;
4122;SDS011;2075;51.062;6.920;2024-02-16T07:34:57;3.93;;;3.07;;
4122;SDS011;2075;51.062;6.920;2024-02-16T07:37:43;4.70;;;3.40;;
4122;SDS011;2075;51.062;6.920;2024-02-16T07:40:30;3.40;;;3.10;;
4122;SDS011;2075;51.062;6.920;2024-02-16T07:43:16;4.10;;;3.07;;
4122;SDS011;2075;51.062;6.920;2024-02-16T07:46:02;3.33;;;3.00;;
4122;SDS011;2075;51.062;6.920;2024-02-16T07:48:48;10.70;;;4.93;;
4122;SDS011;2075;51.062;6.920;2024-02-16T07:51:34;4.00;;;3.10;;
4122;SDS011;2075;51.062;6.920;2024-02-16T07:54:21;5.63;;;3.20;;
4122;SDS011;2075;51.062;6.920;2024-02-16T07:57:08;5.13;;;3.10;;
4122;SDS011;2075;51.062;6.920;2024-02-16T07:59:53;5.78;;;3.60;;
4122;SDS011;2075;51.062;6.920;2024-02-16T08:02:39;4.63;;;3.22;;
4122;SDS011;2075;51.062;6.920;2024-02-16T08:05:27;10.47;;;3.17;;
4122;SDS011;2075;51.062;6.920;2024-02-16T08:08:13;7.23;;;2.70;;
4122;SDS011;2075;51.062;6.920;2024-02-16T08:10:58;8.10;;;3.80;;
4122;SDS011;2075;51.062;6.920;2024-02-16T08:13:46;10.60;;;3.33;;
4122;SDS011;2075;51.062;6.920;2024-02-16T08:16:31;3.20;;;2.83;;
4122;SDS011;2075;51.062;6.920;2024-02-16T08:19:17;5.10;;;3.30;;
4122;SDS011;2075;51.062;6.920;2024-02-16T08:22:05;4.03;;;2.90;;
4122;SDS011;2075;51.062;6.920;2024-02-16T08:24:52;4.77;;;3.00;;
4122;SDS011;2075;51.062;6.920;2024-02-16T08:27:38;7.40;;;3.40;;
4122;SDS011;2075;51.062;6.920;2024-02-16T08:30:25;5.43;;;2.57;;
4122;SDS011;2075;51.062;6.920;2024-02-16T08:33:11;5.47;;;3.07;;
4122;SDS011;2075;51.062;6.920;2024-02-16T08:35:57;4.63;;;2.90;;
4122;SDS011;2075;51.062;6.920;2024-02-16T08:38:43;3.17;;;2.83;;
4122;SDS011;2075;51.062;6.920;2024-02-16T08:41:30;5.07;;;2.50;;
4122;SDS011;2075;51.062;6.920;2024-02-16T08:44:16;5.40;;;3.63;;
4122;SDS011;2075;51.062;6.920;2024-02-16T08:47:04;5.43;;;3.07;;
4122;SDS011;2075;51.062;6.920;2024-02-16T08:49:51;4.63;;;3.00;;
4122;SDS011;2075;51.062;6.920;2024-02-16T08:52:37;3.95;;;2.88;;
4122;SDS011;2075;51.062;6.920;2024-02-16T08:55:23;8.73;;;3.27;;
4122;SDS011;2075;51.062;6.920;2024-02-16T08:58:09;4.07;;;3.33;;
4122;SDS011;2075;51.062;6.920;2024-02-16T09:00:57;3.83;;;3.20;;
4122;SDS011;2075;51.062;6.920;2024-02-16T09:03:44;8.07;;;3.10;;
4122;SDS011;2075;51.062;6.920;2024-02-16T09:06:31;6.90;;;3.07;;
4122;SDS011;2075;51.062;6.920;2024-02-16T09:09:18;8.80;;;3.07;;
4122;SDS011;2075;51.062;6.920;2024-02-16T09:12:04;4.70;;;3.60;;
4122;SDS011;2075;51.062;6.920;2024-02-16T09:14:51;4.13;;;3.20;;
4122;SDS011;2075;51.062;6.920;2024-02-16T09:17:38;5.88;;;3.60;;
4122;SDS011;2075;51.062;6.920;2024-02-16T09:20:26;5.27;;;3.30;;
4122;SDS011;2075;51.062;6.920;2024-02-16T09:23:12;3.47;;;3.17;;
4122;SDS011;2075;51.062;6.920;2024-02-16T09:25:58;7.30;;;3.23;;
4122;SDS011;2075;51.062;6.920;2024-02-16T09:28:44;6.57;;;3.30;;
4122;SDS011;2075;51.062;6.920;2024-02-16T09:31:30;6.60;;;3.60;;
4122;SDS011;2075;51.062;6.920;2024-02-16T09:34:17;5.63;;;3.20;;
4122;SDS011;2075;51.062;6.920;2024-02-16T09:37:07;4.37;;;3.10;;
4122;SDS011;2075;51.062;6.920;2024-02-16T09:39:53;4.30;;;3.20;;
4122;SDS011;2075;51.062;6.920;2024-02-16T09:42:39;3.23;;;2.97;;
4122;SDS011;2075;51.062;6.920;2024-02-16T09:45:25;5.63;;;3.40;;
4122;SDS011;2075;51.062;6.920;2024-02-16T09:48:14;5.17;;;3.17;;
4122;SDS011;2075;51.062;6.920;2024-02-16T09:51:00;5.10;;;3.20;;
4122;SDS011;2075;51.062;6.920;2024-02-16T09:53:50;6.07;;;3.50;;
4122;SDS011;2075;51.062;6.920;2024-02-16T09:56:39;3.00;;;2.50;;
4122;SDS011;2075;51.062;6.920;2024-02-16T09:59:25;9.20;;;3.80;;
4122;SDS011;2075;51.062;6.920;2024-02-16T10:02:11;5.13;;;3.50;;
4122;SDS011;2075;51.062;6.920;2024-02-16T10:04:57;5.53;;;3.57;;
4122;SDS011;2075;51.062;6.920;2024-02-16T10:07:43;10.67;;;3.70;;
4122;SDS011;2075;51.062;6.920;2024-02-16T10:10:31;4.00;;;3.20;;
4122;SDS011;2075;51.062;6.920;2024-02-16T10:13:21;5.53;;;3.40;;
4122;SDS011;2075;51.062;6.920;2024-02-16T10:16:08;5.23;;;3.40;;
4122;SDS011;2075;51.062;6.920;2024-02-16T10:19:03;5.10;;;3.20;;
4122;SDS011;2075;51.062;6.920;2024-02-16T10:21:49;5.17;;;3.60;;
4122;SDS011;2075;51.062;6.920;2024-02-16T10:24:35;7.55;;;4.03;;
4122;SDS011;2075;51.062;6.920;2024-02-16T10:27:23;4.07;;;3.30;;
4122;SDS011;2075;51.062;6.920;2024-02-16T10:30:11;4.70;;;3.23;;
4122;SDS011;2075;51.062;6.920;2024-02-16T10:32:58;7.45;;;3.47;;
4122;SDS011;2075;51.062;6.920;2024-02-16T10:35:46;7.10;;;3.30;;
4122;SDS011;2075;51.062;6.920;2024-02-16T10:38:34;4.57;;;3.20;;
4122;SDS011;2075;51.062;6.920;2024-02-16T10:41:22;6.40;;;3.53;;
4122;SDS011;2075;51.062;6.920;2024-02-16T10:44:13;11.90;;;4.00;;
4122;SDS011;2075;51.062;6.920;2024-02-16T10:46:59;11.10;;;4.27;;
4122;SDS011;2075;51.062;6.920;2024-02-16T10:49:45;5.60;;;3.60;;
4122;SDS011;2075;51.062;6.920;2024-02-16T10:52:32;6.03;;;3.47;;
4122;SDS011;2075;51.062;6.920;2024-02-16T10:55:19;8.73;;;3.83;;
4122;SDS011;2075;51.062;6.920;2024-02-16T10:58:06;5.30;;;3.13;;
4122;SDS011;2075;51.062;6.920;2024-02-16T11:00:56;4.17;;;3.13;;
4122;SDS011;2075;51.062;6.920;2024-02-16T11:03:42;6.40;;;3.50;;
4122;SDS011;2075;51.062;6.920;2024-02-16T11:06:28;5.60;;;3.73;;
4122;SDS011;2075;51.062;6.920;2024-02-16T11:09:25;6.57;;;3.33;;
4122;SDS011;2075;51.062;6.920;2024-02-16T11:12:12;6.73;;;4.00;;
4122;SDS011;2075;51.062;6.920;2024-02-16T11:15:00;4.50;;;3.43;;
4122;SDS011;2075;51.062;6.920;2024-02-16T11:17:47;9.23;;;3.73;;
4122;SDS011;2075;51.062;6.920;2024-02-16T11:20:37;5.73;;;4.07;;
4122;SDS011;2075;51.062;6.920;2024-02-16T11:23:25;4.00;;;3.60;;
4122;SDS011;2075;51.062;6.920;2024-02-16T11:26:13;8.10;;;4.10;;
4122;SDS011;2075;51.062;6.920;2024-02-16T11:28:59;6.60;;;3.47;;
4122;SDS011;2075;51.062;6.920;2024-02-16T11:31:46;3.73;;;3.43;;
4122;SDS011;2075;51.062;6.920;2024-02-16T11:34:34;7.67;;;4.00;;
4122;SDS011;2075;51.062;6.920;2024-02-16T11:37:22;7.10;;;4.00;;
4122;SDS011;2075;51.062;6.920;2024-02-16T11:40:10;7.00;;;3.83;;
4122;SDS011;2075;51.062;6.920;2024-02-16T11:42:58;9.77;;;3.70;;
4122;SDS011;2075;51.062;6.920;2024-02-16T11:45:45;7.07;;;4.10;;
4122;SDS011;2075;51.062;6.920;2024-02-16T11:48:31;7.33;;;3.83;;
4122;SDS011;2075;51.062;6.920;2024-02-16T11:51:19;11.90;;;4.20;;
4122;SDS011;2075;51.062;6.920;2024-02-16T11:54:05;5.77;;;3.83;;
4122;SDS011;2075;51.062;6.920;2024-02-16T11:56:51;7.33;;;4.53;;
4122;SDS011;2075;51.062;6.920;2024-02-16T11:59:37;7.57;;;4.50;;
4122;SDS011;2075;51.062;6.920;2024-02-16T12:02:24;8.40;;;4.55;;
4122;SDS011;2075;51.062;6.920;2024-02-16T12:05:13;5.80;;;4.00;;
4122;SDS011;2075;51.062;6.920;2024-02-16T12:08:00;6.90;;;4.90;;
4122;SDS011;2075;51.062;6.920;2024-02-16T12:10:47;9.93;;;4.57;;
4122;SDS011;2075;51.062;6.920;2024-02-16T12:13:35;8.43;;;4.10;;
4122;SDS011;2075;51.062;6.920;2024-02-16T12:16:22;14.00;;;4.97;;
4122;SDS011;2075;51.062;6.920;2024-02-16T12:19:11;7.93;;;4.60;;
4122;SDS011;2075;51.062;6.920;2024-02-16T12:21:57;8.10;;;4.60;;
4122;SDS011;2075;51.062;6.920;2024-02-16T12:24:45;7.80;;;5.10;;
4122;SDS011;2075;51.062;6.920;2024-02-16T12:27:31;13.30;;;5.13;;
4122;SDS011;2075;51.062;6.920;2024-02-16T12:30:18;9.57;;;5.88;;
4122;SDS011;2075;51.062;6.920;2024-02-16T12:33:04;10.83;;;6.43;;
4122;SDS011;2075;51.062;6.920;2024-02-16T12:35:51;9.20;;;5.00;;
4122;SDS011;2075;51.062;6.920;2024-02-16T12:38:38;11.33;;;5.77;;
4122;SDS011;2075;51.062;6.920;2024-02-16T12:41:26;5.73;;;5.10;;
4122;SDS011;2075;51.062;6.920;2024-02-16T12:44:13;6.33;;;4.97;;
4122;SDS011;2075;51.062;6.920;2024-02-16T12:46:59;14.90;;;6.13;;
4122;SDS011;2075;51.062;6.920;2024-02-16T12:49:45;8.23;;;5.43;;
4122;SDS011;2075;51.062;6.920;2024-02-16T12:52:31;9.20;;;5.67;;
4122;SDS011;2075;51.062;6.920;2024-02-16T12:55:19;11.50;;;5.60;;
4122;SDS011;2075;51.062;6.920;2024-02-16T12:58:07;12.53;;;5.40;;
4122;SDS011;2075;51.062;6.920;2024-02-16T13:00:53;9.20;;;5.90;;
4122;SDS011;2075;51.062;6.920;2024-02-16T13:03:40;10.40;;;6.53;;
4122;SDS011;2075;51.062;6.920;2024-02-16T13:06:26;12.40;;;6.00;;
4122;SDS011;2075;51.062;6.920;2024-02-16T13:09:14;18.30;;;6.70;;
4122;SDS011;2075;51.062;6.920;2024-02-16T13:12:01;13.43;;;6.40;;
4122;SDS011;2075;51.062;6.920;2024-02-16T13:14:52;8.70;;;6.40;;
4122;SDS011;2075;51.062;6.920;2024-02-16T13:17:38;11.70;;;6.27;;
4122;SDS011;2075;51.062;6.920;2024-02-16T13:20:25;12.27;;;6.13;;
4122;SDS011;2075;51.062;6.920;2024-02-16T13:23:11;9.23;;;5.40;;
4122;SDS011;2075;51.062;6.920;2024-02-16T13:25:57;8.43;;;5.70;;
4122;SDS011;2075;51.062;6.920;2024-02-16T13:28:43;11.03;;;5.53;;
4122;SDS011;2075;51.062;6.920;2024-02-16T13:31:31;11.00;;;6.70;;
4122;SDS011;2075;51.062;6.920;2024-02-16T13:34:17;9.13;;;5.23;;
4122;SDS011;2075;51.062;6.920;2024-02-16T13:37:03;9.43;;;5.90;;
4122;SDS011;2075;51.062;6.920;2024-02-16T13:39:49;8.53;;;5.83;;
4122;SDS011;2075;51.062;6.920;2024-02-16T13:42:36;12.63;;;6.00;;
4122;SDS011;2075;51.062;6.920;2024-02-16T13:45:25;9.80;;;5.80;;
4122;SDS011;2075;51.062;6.920;2024-02-16T13:48:14;12.57;;;5.63;;
4122;SDS011;2075;51.062;6.920;2024-02-16T13:51:00;10.57;;;6.47;;
4122;SDS011;2075;51.062;6.920;2024-02-16T13:53:47;18.50;;;5.30;;
4122;SDS011;2075;51.062;6.920;2024-02-16T13:56:35;11.27;;;5.87;;
4122;SDS011;2075;51.062;6.920;2024-02-16T13:59:22;12.50;;;6.70;;
4122;SDS011;2075;51.062;6.920;2024-02-16T14:02:08;8.57;;;6.10;;
4122;SDS011;2075;51.062;6.920;2024-02-16T14:04:57;10.53;;;6.37;;
4122;SDS011;2075;51.062;6.920;2024-02-16T14:07:45;9.57;;;6.40;;
4122;SDS011;2075;51.062;6.920;2024-02-16T14:10:33;11.90;;;6.70;;
4122;SDS011;2075;51.062;6.920;2024-02-16T14:13:18;10.70;;;6.47;;
4122;SDS011;2075;51.062;6.920;2024-02-16T14:16:06;19.03;;;9.17;;
4122;SDS011;2075;51.062;6.920;2024-02-16T14:18:57;17.53;;;8.30;;
4122;SDS011;2075;51.062;6.920;2024-02-16T14:21:47;15.77;;;8.90;;
4122;SDS011;2075;51.062;6.920;2024-02-16T14:24:33;16.17;;;6.73;;
4122;SDS011;2075;51.062;6.920;2024-02-16T14:27:20;10.23;;;5.63;;
4122;SDS011;2075;51.062;6.920;2024-02-16T14:30:08;10.33;;;6.30;;
4122;SDS011;2075;51.062;6.920;2024-02-16T14:32:56;11.20;;;6.43;;
4122;SDS011;2075;51.062;6.920;2024-02-16T14:35:43;12.17;;;5.97;;
4122;SDS011;2075;51.062;6.920;2024-02-16T14:38:31;8.73;;;6.60;;
4122;SDS011;2075;51.062;6.920;2024-02-16T14:41:18;10.50;;;6.57;;
4122;SDS011;2075;51.062;6.920;2024-02-16T14:44:10;9.73;;;6.87;;
4122;SDS011;2075;51.062;6.920;2024-02-16T14:46:59;7.40;;;6.33;;
4122;SDS011;2075;51.062;6.920;2024-02-16T14:49:46;8.00;;;5.73;;
4122;SDS011;2075;51.062;6.920;2024-02-16T14:52:33;11.87;;;6.50;;
4122;SDS011;2075;51.062;6.920;2024-02-16T14:55:23;15.80;;;7.50;;
4122;SDS011;2075;51.062;6.920;2024-02-16T14:58:11;11.17;;;7.30;;
4122;SDS011;2075;51.062;6.920;2024-02-16T15:01:33;8.33;;;7.30;;
4122;SDS011;2075;51.062;6.920;2024-02-16T15:04:19;13.10;;;7.00;;
4122;SDS011;2075;51.062;6.920;2024-02-16T15:07:12;12.53;;;7.43;;
4122;SDS011;2075;51.062;6.920;2024-02-16T15:09:59;13.90;;;8.63;;
4122;SDS011;2075;51.062;6.920;2024-02-16T15:12:46;7.73;;;6.70;;
4122;SDS011;2075;51.062;6.920;2024-02-16T15:15:32;8.30;;;6.70;;
4122;SDS011;2075;51.062;6.920;2024-02-16T15:18:19;9.50;;;7.00;;
4122;SDS011;2075;51.062;6.920;2024-02-16T15:21:05;8.83;;;7.90;;
4122;SDS011;2075;51.062;6.920;2024-02-16T15:23:51;8.80;;;6.93;;
4122;SDS011;2075;51.062;6.920;2024-02-16T15:26:37;8.90;;;6.63;;
4122;SDS011;2075;51.062;6.920;2024-02-16T15:29:25;9.60;;;6.90;;
4122;SDS011;2075;51.062;6.920;2024-02-16T15:32:12;7.20;;;6.47;;
4122;SDS011;2075;51.062;6.920;2024-02-16T15:34:58;10.60;;;7.20;;
4122;SDS011;2075;51.062;6.920;2024-02-16T15:37:44;8.63;;;6.90;;
4122;SDS011;2075;51.062;6.920;2024-02-16T15:40:30;9.90;;;6.20;;
4122;SDS011;2075;51.062;6.920;2024-02-16T15:43:20;7.40;;;6.70;;
4122;SDS011;2075;51.062;6.920;2024-02-16T15:46:07;9.87;;;7.83;;
4122;SDS011;2075;51.062;6.920;2024-02-16T15:48:54;8.57;;;6.60;;
4122;SDS011;2075;51.062;6.920;2024-02-16T15:51:40;9.13;;;6.07;;
4122;SDS011;2075;51.062;6.920;2024-02-16T15:54:27;7.03;;;6.20;;
4122;SDS011;2075;51.062;6.920;2024-02-16T15:57:13;6.33;;;5.77;;
4122;SDS011;2075;51.062;6.920;2024-02-16T16:00:00;35.67;;;6.73;;
4122;SDS011;2075;51.062;6.920;2024-02-16T16:02:50;5.40;;;4.90;;
4122;SDS011;2075;51.062;6.920;2024-02-16T16:05:37;6.63;;;4.13;;
4122;SDS011;2075;51.062;6.920;2024-02-16T16:08:23;4.20;;;3.80;;
4122;SDS011;2075;51.062;6.920;2024-02-16T16:11:09;4.60;;;4.20;;
4122;SDS011;2075;51.062;6.920;2024-02-16T16:13:55;6.10;;;5.40;;
4122;SDS011;2075;51.062;6.920;2024-02-16T16:16:41;9.33;;;5.93;;
4122;SDS011;2075;51.062;6.920;2024-02-16T16:19:29;8.57;;;5.30;;
4122;SDS011;2075;51.062;6.920;2024-02-16T16:22:15;8.73;;;5.33;;
4122;SDS011;2075;51.062;6.920;2024-02-16T16:25:02;5.83;;;5.30;;
4122;SDS011;2075;51.062;6.920;2024-02-16T16:27:49;5.83;;;5.10;;
4122;SDS011;2075;51.062;6.920;2024-02-16T16:30:35;7.90;;;5.83;;
4122;SDS011;2075;51.062;6.920;2024-02-16T16:33:22;7.30;;;5.90;;
4122;SDS011;2075;51.062;6.920;2024-02-16T16:36:10;6.33;;;5.43;;
4122;SDS011;2075;51.062;6.920;2024-02-16T16:38:57;6.33;;;5.73;;
4122;SDS011;2075;51.062;6.920;2024-02-16T16:41:43;6.90;;;6.20;;
4122;SDS011;2075;51.062;6.920;2024-02-16T16:44:30;5.97;;;4.93;;
4122;SDS011;2075;51.062;6.920;2024-02-16T16:47:16;7.00;;;6.30;;
4122;SDS011;2075;51.062;6.920;2024-02-16T16:50:04;7.33;;;6.03;;
4122;SDS011;2075;51.062;6.920;2024-02-16T16:52:54;7.83;;;6.20;;
4122;SDS011;2075;51.062;6.920;2024-02-16T16:55:42;6.53;;;5.93;;
4122;SDS011;2075;51.062;6.920;2024-02-16T16:58:34;8.60;;;6.70;;
4122;SDS011;2075;51.062;6.920;2024-02-16T17:01:19;7.60;;;6.90;;
4122;SDS011;2075;51.062;6.920;2024-02-16T17:04:05;9.47;;;6.77;;
4122;SDS011;2075;51.062;6.920;2024-02-16T17:06:51;8.77;;;7.00;;
4122;SDS011;2075;51.062;6.920;2024-02-16T17:09:39;7.53;;;6.70;;
4122;SDS011;2075;51.062;6.920;2024-02-16T17:12:25;10.17;;;8.33;;